createdAt,value
2023-05-10T00:00:49.623Z,11.46
2023-05-10T00:01:53.889Z,11.48
2023-05-10T00:02:58.183Z,11.48
2023-05-10T00:04:02.481Z,11.46
2023-05-10T00:05:06.724Z,11.43
2023-05-10T00:06:10.997Z,11.41
2023-05-10T00:07:15.230Z,11.38
2023-05-10T00:08:19.526Z,11.36
2023-05-10T00:09:23.871Z,11.34
2023-05-10T00:10:28.118Z,11.33
2023-05-10T00:11:32.468Z,11.32
2023-05-10T00:12:48.754Z,11.31
2023-05-10T00:13:51.264Z,11.27
2023-05-10T00:14:55.467Z,11.23
2023-05-10T00:15:59.849Z,11.18
2023-05-10T00:17:04.107Z,11.14
2023-05-10T00:18:08.498Z,11.11
2023-05-10T00:19:12.645Z,11.09
2023-05-10T00:20:17.231Z,11.06
2023-05-10T00:21:21.160Z,11.04
2023-05-10T00:22:25.478Z,11.04
2023-05-10T00:23:29.852Z,11.03
2023-05-10T00:24:34.132Z,11.01
2023-05-10T00:25:38.361Z,10.97
2023-05-10T00:26:42.703Z,10.94
2023-05-10T00:27:46.966Z,10.91
2023-05-10T00:28:51.253Z,10.87
2023-05-10T00:29:55.517Z,10.85
2023-05-10T00:30:59.790Z,10.83
2023-05-10T00:32:04.275Z,10.81
2023-05-10T00:33:22.470Z,10.80
2023-05-10T00:34:25.732Z,10.80
2023-05-10T00:35:29.967Z,10.80
2023-05-10T00:36:34.156Z,10.78
2023-05-10T00:37:38.487Z,10.76
2023-05-10T00:38:42.786Z,10.74
2023-05-10T00:39:47.041Z,10.73
2023-05-10T00:40:51.290Z,10.72
2023-05-10T00:41:55.543Z,10.71
2023-05-10T00:42:59.955Z,10.70
2023-05-10T00:44:04.132Z,10.70
2023-05-10T00:45:08.385Z,10.70
2023-05-10T00:46:12.733Z,10.70
2023-05-10T00:47:16.953Z,10.70
2023-05-10T00:48:21.288Z,10.70
2023-05-10T00:49:25.512Z,10.68
2023-05-10T00:50:29.729Z,10.67
2023-05-10T00:51:34.005Z,10.66
2023-05-10T00:52:38.257Z,10.65
2023-05-10T00:53:42.532Z,10.64
2023-05-10T00:54:46.825Z,10.63
2023-05-10T00:55:51.101Z,10.62
2023-05-10T00:56:55.400Z,10.61
2023-05-10T00:57:59.653Z,10.60
2023-05-10T00:59:03.956Z,10.60
2023-05-10T01:00:08.391Z,10.59
2023-05-10T01:01:12.563Z,10.59
2023-05-10T01:02:16.852Z,10.59
2023-05-10T01:03:21.283Z,10.57
2023-05-10T01:04:25.547Z,10.57
2023-05-10T01:05:29.710Z,10.56
2023-05-10T01:06:34.062Z,10.55
2023-05-10T01:07:38.303Z,10.54
2023-05-10T01:08:42.554Z,10.53
2023-05-10T01:09:46.856Z,10.53
2023-05-10T01:10:51.121Z,10.52
2023-05-10T01:11:55.438Z,10.53
2023-05-10T01:12:59.735Z,10.52
2023-05-10T01:14:04.044Z,10.50
2023-05-10T01:15:08.218Z,10.49
2023-05-10T01:16:12.730Z,10.46
2023-05-10T01:17:16.858Z,10.45
2023-05-10T01:18:21.136Z,10.44
2023-05-10T01:19:25.457Z,10.42
2023-05-10T01:20:43.651Z,10.41
2023-05-10T01:21:47.084Z,10.40
2023-05-10T01:22:51.247Z,10.39
2023-05-10T01:23:55.500Z,10.38
2023-05-10T01:24:59.758Z,10.37
2023-05-10T01:26:04.108Z,10.35
2023-05-10T01:27:08.476Z,10.34
2023-05-10T01:28:12.644Z,10.33
2023-05-10T01:29:16.961Z,10.32
2023-05-10T01:31:25.653Z,10.30
2023-05-10T01:32:29.863Z,10.29
2023-05-10T01:33:34.079Z,10.28
2023-05-10T01:34:38.391Z,10.27
2023-05-10T01:35:42.639Z,10.28
2023-05-10T01:36:46.956Z,10.29
2023-05-10T01:37:51.136Z,10.29
2023-05-10T01:38:55.478Z,10.29
2023-05-10T01:39:59.794Z,10.29
2023-05-10T01:41:04.054Z,10.29
2023-05-10T01:42:08.312Z,10.28
2023-05-10T01:43:12.546Z,10.28
2023-05-10T01:44:16.818Z,10.28
2023-05-10T01:45:21.119Z,10.27
2023-05-10T01:46:25.449Z,10.25
2023-05-10T01:47:29.740Z,10.23
2023-05-10T01:48:33.946Z,10.22
2023-05-10T01:49:38.287Z,10.22
2023-05-10T01:50:42.622Z,10.20
2023-05-10T01:51:46.799Z,10.19
2023-05-10T01:52:51.050Z,10.17
2023-05-10T01:53:55.186Z,10.16
2023-05-10T01:54:59.604Z,10.15
2023-05-10T01:56:03.908Z,10.14
2023-05-10T01:57:08.183Z,10.13
2023-05-10T01:58:12.544Z,10.11
2023-05-10T01:59:16.809Z,10.09
2023-05-10T02:00:21.133Z,10.07
2023-05-10T02:01:25.492Z,10.05
2023-05-10T02:02:29.774Z,10.04
2023-05-10T02:03:34.038Z,10.02
2023-05-10T02:04:38.211Z,10.01
2023-05-10T02:05:42.557Z,10.00
2023-05-10T02:06:46.788Z,10.00
2023-05-10T02:07:51.067Z,9.98
2023-05-10T02:08:55.341Z,9.98
2023-05-10T02:09:59.642Z,9.98
2023-05-10T02:11:03.879Z,9.98
2023-05-10T02:12:08.250Z,9.99
2023-05-10T02:13:12.604Z,9.98
2023-05-10T02:14:16.776Z,9.98
2023-05-10T02:15:21.140Z,9.96
2023-05-10T02:16:25.468Z,9.94
2023-05-10T02:17:29.718Z,9.93
2023-05-10T02:18:34.091Z,9.92
2023-05-10T02:19:38.257Z,9.92
2023-05-10T02:20:42.530Z,9.91
2023-05-10T02:21:46.864Z,9.89
2023-05-10T02:22:51.165Z,9.88
2023-05-10T02:23:56.417Z,9.88
2023-05-10T02:25:00.265Z,9.88
2023-05-10T02:26:04.565Z,9.88
2023-05-10T02:27:08.810Z,9.88
2023-05-10T02:28:13.079Z,9.89
2023-05-10T02:29:17.289Z,9.89
2023-05-10T02:30:21.588Z,9.88
2023-05-10T02:31:25.920Z,9.88
2023-05-10T02:32:30.173Z,9.87
2023-05-10T02:33:34.511Z,9.88
2023-05-10T02:34:38.664Z,9.87
2023-05-10T02:35:43.009Z,9.87
2023-05-10T02:36:47.327Z,9.87
2023-05-10T02:37:51.509Z,9.87
2023-05-10T02:38:55.747Z,9.87
2023-05-10T02:40:00.080Z,9.86
2023-05-10T02:41:04.231Z,9.86
2023-05-10T02:42:08.476Z,9.85
2023-05-10T02:43:12.739Z,9.84
2023-05-10T02:44:17.030Z,9.81
2023-05-10T02:45:21.369Z,9.79
2023-05-10T02:46:25.615Z,9.78
2023-05-10T02:47:29.923Z,9.78
2023-05-10T02:48:34.111Z,9.76
2023-05-10T02:49:38.296Z,9.75
2023-05-10T02:50:42.578Z,9.74
2023-05-10T02:51:46.835Z,9.73
2023-05-10T02:52:51.174Z,9.71
2023-05-10T02:53:55.391Z,9.71
2023-05-10T02:54:59.691Z,9.69
2023-05-10T02:56:03.898Z,9.69
2023-05-10T02:57:08.311Z,9.68
2023-05-10T02:58:12.494Z,9.68
2023-05-10T02:59:16.752Z,9.69
2023-05-10T03:00:21.013Z,9.70
2023-05-10T03:01:25.189Z,9.70
2023-05-10T03:02:29.457Z,9.71
2023-05-10T03:03:33.696Z,9.71
2023-05-10T03:04:38.032Z,9.71
2023-05-10T03:05:42.277Z,9.71
2023-05-10T03:06:46.525Z,9.71
2023-05-10T03:07:50.779Z,9.70
2023-05-10T03:08:55.020Z,9.70
2023-05-10T03:09:59.201Z,9.70
2023-05-10T03:11:03.612Z,9.70
2023-05-10T03:12:07.790Z,9.70
2023-05-10T03:13:12.111Z,9.71
2023-05-10T03:14:16.322Z,9.72
2023-05-10T03:15:20.675Z,9.72
2023-05-10T03:16:24.905Z,9.73
2023-05-10T03:17:29.147Z,9.73
2023-05-10T03:18:33.372Z,9.72
2023-05-10T03:19:37.623Z,9.72
2023-05-10T03:20:41.898Z,9.71
2023-05-10T03:21:46.172Z,9.70
2023-05-10T03:22:50.254Z,9.70
2023-05-10T03:23:54.602Z,9.70
2023-05-10T03:24:58.872Z,9.70
2023-05-10T03:26:03.148Z,9.70
2023-05-10T03:27:07.377Z,9.70
2023-05-10T03:28:11.819Z,9.71
2023-05-10T03:29:15.981Z,9.72
2023-05-10T03:30:20.221Z,9.74
2023-05-10T03:31:24.564Z,9.75
2023-05-10T03:32:28.886Z,9.76
2023-05-10T03:33:33.078Z,9.78
2023-05-10T03:34:37.505Z,9.79
2023-05-10T03:35:41.849Z,9.81
2023-05-10T03:36:46.149Z,9.83
2023-05-10T03:37:50.401Z,9.85
2023-05-10T03:38:54.665Z,9.86
2023-05-10T03:39:58.776Z,9.88
2023-05-10T03:41:03.082Z,9.89
2023-05-10T03:42:07.342Z,9.91
2023-05-10T03:43:11.520Z,9.92
2023-05-10T03:44:15.909Z,9.93
2023-05-10T03:45:20.072Z,9.93
2023-05-10T03:46:24.450Z,9.94
2023-05-10T03:47:34.733Z,9.95
2023-05-10T03:48:37.549Z,9.96
2023-05-10T03:49:41.717Z,9.97
2023-05-10T03:50:45.963Z,9.98
2023-05-10T03:51:50.208Z,9.99
2023-05-10T03:52:54.938Z,10.01
2023-05-10T03:53:58.753Z,10.01
2023-05-10T03:55:03.024Z,10.01
2023-05-10T03:56:07.271Z,10.01
2023-05-10T03:57:11.645Z,10.02
2023-05-10T03:58:15.854Z,10.02
2023-05-10T03:59:20.217Z,10.03
2023-05-10T04:00:24.504Z,10.04
2023-05-10T04:01:28.656Z,10.04
2023-05-10T04:02:33.168Z,10.05
2023-05-10T04:03:37.306Z,10.06
2023-05-10T04:04:41.519Z,10.06
2023-05-10T04:05:45.733Z,10.07
2023-05-10T04:06:50.157Z,10.09
2023-05-10T04:07:54.342Z,10.10
2023-05-10T04:08:58.587Z,10.10
2023-05-10T04:10:02.919Z,10.11
2023-05-10T04:11:07.115Z,10.13
2023-05-10T04:12:11.447Z,10.14
2023-05-10T04:13:15.691Z,10.16
2023-05-10T04:14:19.798Z,10.18
2023-05-10T04:15:24.034Z,10.18
2023-05-10T04:16:28.379Z,10.19
2023-05-10T04:17:35.704Z,10.21
2023-05-10T04:18:38.961Z,10.22
2023-05-10T04:19:43.256Z,10.25
2023-05-10T04:20:47.527Z,10.28
2023-05-10T04:21:51.780Z,10.30
2023-05-10T04:22:56.023Z,10.31
2023-05-10T04:24:00.308Z,10.34
2023-05-10T04:25:04.633Z,10.36
2023-05-10T04:26:08.880Z,10.38
2023-05-10T04:27:13.225Z,10.40
2023-05-10T04:28:17.477Z,10.43
2023-05-10T04:29:21.828Z,10.45
2023-05-10T04:30:26.047Z,10.48
2023-05-10T04:31:30.311Z,10.50
2023-05-10T04:32:34.536Z,10.54
2023-05-10T04:33:38.801Z,10.56
2023-05-10T04:34:43.012Z,10.57
2023-05-10T04:35:47.300Z,10.60
2023-05-10T04:36:51.570Z,10.64
2023-05-10T04:37:55.804Z,10.67
2023-05-10T04:39:00.103Z,10.69
2023-05-10T04:40:04.416Z,10.72
2023-05-10T04:41:08.635Z,10.76
2023-05-10T04:42:12.889Z,10.78
2023-05-10T04:43:17.168Z,10.82
2023-05-10T04:44:21.518Z,10.84
2023-05-10T04:45:25.782Z,10.87
2023-05-10T04:46:30.168Z,10.90
2023-05-10T04:47:34.455Z,10.93
2023-05-10T04:48:38.674Z,10.95
2023-05-10T04:49:42.943Z,10.99
2023-05-10T04:50:47.249Z,11.02
2023-05-10T04:51:51.505Z,11.05
2023-05-10T04:52:55.780Z,11.08
2023-05-10T04:54:05.865Z,11.12
2023-05-10T04:55:04.302Z,11.16
2023-05-10T04:56:08.662Z,11.20
2023-05-10T04:57:12.947Z,11.24
2023-05-10T04:58:17.266Z,11.28
2023-05-10T04:59:21.569Z,11.32
2023-05-10T05:00:25.825Z,11.36
2023-05-10T05:01:30.255Z,11.41
2023-05-10T05:02:34.565Z,11.44
2023-05-10T05:03:38.842Z,11.46
2023-05-10T05:04:43.109Z,11.50
2023-05-10T05:05:47.343Z,11.55
2023-05-10T05:06:53.770Z,11.58
2023-05-10T05:07:55.968Z,11.63
2023-05-10T05:09:00.253Z,11.67
2023-05-10T05:10:04.600Z,11.71
2023-05-10T05:11:08.831Z,11.75
2023-05-10T05:12:13.169Z,11.78
2023-05-10T05:13:17.436Z,11.82
2023-05-10T05:14:21.690Z,11.86
2023-05-10T05:15:25.988Z,11.91
2023-05-10T05:16:30.328Z,11.95
2023-05-10T05:17:34.643Z,11.98
2023-05-10T05:18:38.882Z,12.02
2023-05-10T05:19:43.226Z,12.07
2023-05-10T05:20:47.462Z,12.11
2023-05-10T05:21:51.753Z,12.16
2023-05-10T05:22:56.010Z,12.18
2023-05-10T05:24:00.321Z,12.22
2023-05-10T05:25:04.654Z,12.24
2023-05-10T05:26:09.011Z,12.28
2023-05-10T05:27:13.261Z,12.32
2023-05-10T05:28:17.575Z,12.36
2023-05-10T05:29:21.849Z,12.39
2023-05-10T05:30:26.120Z,12.43
2023-05-10T05:31:30.425Z,12.46
2023-05-10T05:32:34.745Z,12.49
2023-05-10T05:33:38.987Z,12.54
2023-05-10T05:34:43.386Z,12.57
2023-05-10T05:35:47.611Z,12.60
2023-05-10T05:36:51.923Z,12.63
2023-05-10T05:37:56.220Z,12.66
2023-05-10T05:39:00.577Z,12.71
2023-05-10T05:40:04.809Z,12.73
2023-05-10T05:41:09.238Z,12.75
2023-05-10T05:42:13.488Z,12.79
2023-05-10T05:43:17.769Z,12.81
2023-05-10T05:44:22.073Z,12.83
2023-05-10T05:45:26.339Z,12.86
2023-05-10T05:46:30.652Z,12.88
2023-05-10T05:47:34.943Z,12.91
2023-05-10T05:48:39.256Z,12.95
2023-05-10T05:49:43.554Z,13.00
2023-05-10T05:50:47.913Z,13.03
2023-05-10T05:51:52.263Z,13.07
2023-05-10T05:52:56.614Z,13.12
2023-05-10T05:54:00.877Z,13.15
2023-05-10T05:55:05.166Z,13.20
2023-05-10T05:56:09.488Z,13.25
2023-05-10T05:57:13.834Z,13.31
2023-05-10T05:58:18.149Z,13.37
2023-05-10T05:59:22.451Z,13.44
2023-05-10T06:00:26.838Z,13.47
2023-05-10T06:01:31.177Z,13.49
2023-05-10T06:02:35.590Z,13.52
2023-05-10T06:03:39.904Z,13.56
2023-05-10T06:04:44.901Z,13.57
2023-05-10T06:05:48.453Z,13.60
2023-05-10T06:06:52.825Z,13.63
2023-05-10T06:07:57.079Z,13.64
2023-05-10T06:09:01.375Z,13.65
2023-05-10T06:10:05.681Z,13.66
2023-05-10T06:11:10.081Z,13.71
2023-05-10T06:12:14.342Z,13.75
2023-05-10T06:13:18.728Z,13.78
2023-05-10T06:14:22.842Z,13.80
2023-05-10T06:15:27.261Z,13.84
2023-05-10T06:16:31.794Z,13.88
2023-05-10T06:17:36.053Z,13.94
2023-05-10T06:18:40.382Z,13.99
2023-05-10T06:19:44.804Z,14.05
2023-05-10T06:20:49.077Z,14.10
2023-05-10T06:21:54.057Z,14.15
2023-05-10T06:22:57.741Z,14.17
2023-05-10T06:24:02.056Z,14.21
2023-05-10T06:25:06.477Z,14.25
2023-05-10T06:26:10.676Z,14.31
2023-05-10T06:27:15.063Z,14.34
2023-05-10T06:28:19.445Z,14.38
2023-05-10T06:29:23.701Z,14.45
2023-05-10T06:30:28.195Z,14.50
2023-05-10T06:31:32.481Z,14.53
2023-05-10T06:32:36.772Z,14.58
2023-05-10T06:33:41.042Z,14.55
2023-05-10T06:34:45.470Z,14.56
2023-05-10T06:35:49.741Z,14.59
2023-05-10T06:36:54.083Z,14.65
2023-05-10T06:37:58.406Z,14.65
2023-05-10T06:39:02.778Z,14.70
2023-05-10T06:40:07.192Z,14.73
2023-05-10T06:41:11.488Z,14.77
2023-05-10T06:42:18.841Z,14.80
2023-05-10T06:43:22.403Z,14.86
2023-05-10T06:44:26.678Z,14.92
2023-05-10T06:45:31.104Z,14.96
2023-05-10T06:46:35.475Z,14.99
2023-05-10T06:47:39.982Z,14.99
2023-05-10T06:48:44.169Z,15.02
2023-05-10T06:49:48.689Z,15.05
2023-05-10T06:50:53.048Z,15.12
2023-05-10T06:51:57.371Z,15.16
2023-05-10T06:53:01.749Z,15.21
2023-05-10T06:54:06.134Z,15.22
2023-05-10T06:55:10.506Z,15.29
2023-05-10T06:56:14.885Z,15.40
2023-05-10T06:57:30.647Z,15.49
2023-05-10T06:58:23.792Z,15.55
2023-05-10T06:59:28.273Z,15.65
2023-05-10T07:00:32.692Z,15.71
2023-05-10T07:01:36.995Z,15.78
2023-05-10T07:02:41.346Z,15.82
2023-05-10T07:03:51.685Z,15.88
2023-05-10T07:04:54.794Z,15.88
2023-05-10T07:05:58.975Z,15.97
2023-05-10T07:07:03.293Z,16.04
2023-05-10T07:08:07.820Z,16.16
2023-05-10T07:09:12.234Z,16.25
2023-05-10T07:10:16.618Z,16.40
2023-05-10T07:11:21.011Z,16.50
2023-05-10T07:12:25.393Z,16.53
2023-05-10T07:13:29.874Z,16.42
2023-05-10T07:14:34.046Z,16.42
2023-05-10T07:15:38.498Z,16.42
2023-05-10T07:16:42.994Z,16.35
2023-05-10T07:17:47.279Z,16.29
2023-05-10T07:18:51.656Z,16.29
2023-05-10T07:19:56.037Z,16.30
2023-05-10T07:21:00.544Z,16.33
2023-05-10T07:22:04.754Z,16.32
2023-05-10T07:23:09.085Z,16.31
2023-05-10T07:24:13.476Z,16.32
2023-05-10T07:25:18.135Z,16.36
2023-05-10T07:26:22.236Z,16.34
2023-05-10T07:27:26.634Z,16.35
2023-05-10T07:28:31.004Z,16.38
2023-05-10T07:29:35.447Z,16.41
2023-05-10T07:30:39.907Z,16.47
2023-05-10T07:31:44.177Z,16.54
2023-05-10T07:32:48.598Z,16.50
2023-05-10T07:33:53.003Z,16.52
2023-05-10T07:34:57.354Z,16.51
2023-05-10T07:36:01.704Z,16.54
2023-05-10T07:37:06.010Z,16.55
2023-05-10T07:38:10.376Z,16.59
2023-05-10T07:39:18.643Z,16.63
2023-05-10T07:40:19.152Z,16.68
2023-05-10T07:41:23.594Z,16.70
2023-05-10T07:42:28.013Z,16.73
2023-05-10T07:43:32.348Z,16.78
2023-05-10T07:44:36.763Z,16.83
2023-05-10T07:45:41.165Z,16.89
2023-05-10T07:46:45.445Z,16.95
2023-05-10T07:47:49.879Z,16.98
2023-05-10T07:48:54.279Z,17.00
2023-05-10T07:49:58.604Z,17.02
2023-05-10T07:51:02.894Z,17.06
2023-05-10T07:52:07.267Z,17.08
2023-05-10T07:53:11.708Z,17.07
2023-05-10T07:54:16.098Z,16.98
2023-05-10T07:55:20.551Z,16.99
2023-05-10T07:56:24.972Z,16.98
2023-05-10T07:57:29.240Z,17.00
2023-05-10T07:58:33.672Z,17.05
2023-05-10T07:59:38.041Z,17.09
2023-05-10T08:00:45.481Z,17.13
2023-05-10T08:01:48.929Z,17.16
2023-05-10T08:02:53.412Z,17.19
2023-05-10T08:03:57.761Z,17.18
2023-05-10T08:05:02.087Z,17.19
2023-05-10T08:06:06.510Z,17.21
2023-05-10T08:07:10.998Z,17.22
2023-05-10T08:08:15.255Z,17.25
2023-05-10T08:09:19.638Z,17.28
2023-05-10T08:10:23.940Z,17.31
2023-05-10T08:11:28.386Z,17.30
2023-05-10T08:12:32.726Z,17.34
2023-05-10T08:13:37.136Z,17.36
2023-05-10T08:14:41.437Z,17.39
2023-05-10T08:15:45.776Z,17.43
2023-05-10T08:16:50.105Z,17.47
2023-05-10T08:17:54.704Z,17.51
2023-05-10T08:18:58.989Z,17.52
2023-05-10T08:20:03.266Z,17.57
2023-05-10T08:21:07.563Z,17.62
2023-05-10T08:22:12.012Z,17.67
2023-05-10T08:23:16.350Z,17.71
2023-05-10T08:24:20.797Z,17.73
2023-05-10T08:25:25.072Z,17.76
2023-05-10T08:26:29.547Z,17.76
2023-05-10T08:27:33.892Z,17.77
2023-05-10T08:28:38.400Z,17.76
2023-05-10T08:29:50.103Z,17.75
2023-05-10T08:30:46.991Z,17.75
2023-05-10T08:31:51.424Z,17.77
2023-05-10T08:32:55.821Z,17.79
2023-05-10T08:34:00.194Z,17.79
2023-05-10T08:35:04.616Z,17.79
2023-05-10T08:36:09.125Z,17.82
2023-05-10T08:37:16.508Z,17.83
2023-05-10T08:38:20.041Z,17.87
2023-05-10T08:39:30.261Z,17.91
2023-05-10T08:40:28.691Z,17.96
2023-05-10T08:41:33.069Z,18.00
2023-05-10T08:42:37.503Z,18.06
2023-05-10T08:43:42.001Z,18.09
2023-05-10T08:44:48.865Z,18.14
2023-05-10T08:45:50.803Z,18.19
2023-05-10T08:46:55.219Z,18.23
2023-05-10T08:47:59.472Z,18.26
2023-05-10T08:49:03.888Z,18.29
2023-05-10T08:50:08.217Z,18.29
2023-05-10T08:51:12.558Z,18.29
2023-05-10T08:52:16.935Z,18.32
2023-05-10T08:53:21.312Z,18.27
2023-05-10T08:54:25.719Z,18.29
2023-05-10T08:55:30.012Z,18.35
2023-05-10T08:56:34.346Z,18.33
2023-05-10T08:57:38.861Z,18.32
2023-05-10T08:58:43.209Z,18.33
2023-05-10T08:59:47.568Z,18.35
2023-05-10T09:00:51.972Z,18.39
2023-05-10T09:01:56.249Z,18.40
2023-05-10T09:03:00.682Z,18.42
2023-05-10T09:04:05.233Z,18.39
2023-05-10T09:05:09.451Z,18.37
2023-05-10T09:06:13.750Z,18.34
2023-05-10T09:07:18.190Z,18.36
2023-05-10T09:08:22.519Z,18.41
2023-05-10T09:09:26.836Z,18.47
2023-05-10T09:10:31.317Z,18.54
2023-05-10T09:11:35.530Z,18.63
2023-05-10T09:12:39.897Z,18.69
2023-05-10T09:13:44.251Z,18.74
2023-05-10T09:14:48.628Z,18.78
2023-05-10T09:15:53.037Z,18.79
2023-05-10T09:16:57.441Z,18.83
2023-05-10T09:18:01.783Z,18.87
2023-05-10T09:19:06.151Z,18.91
2023-05-10T09:20:10.626Z,18.93
2023-05-10T09:21:14.911Z,18.96
2023-05-10T09:22:19.232Z,18.98
2023-05-10T09:23:23.589Z,19.01
2023-05-10T09:24:27.978Z,19.02
2023-05-10T09:25:32.415Z,19.01
2023-05-10T09:26:36.993Z,19.03
2023-05-10T09:27:41.138Z,19.05
2023-05-10T09:28:45.580Z,19.07
2023-05-10T09:30:03.978Z,19.09
2023-05-10T09:31:07.355Z,19.14
2023-05-10T09:32:11.727Z,19.19
2023-05-10T09:33:29.946Z,19.24
2023-05-10T09:34:33.200Z,19.25
2023-05-10T09:35:37.733Z,19.28
2023-05-10T09:36:42.101Z,19.32
2023-05-10T09:37:46.521Z,19.35
2023-05-10T09:38:50.847Z,19.37
2023-05-10T09:39:55.269Z,19.37
2023-05-10T09:40:59.546Z,19.33
2023-05-10T09:42:03.927Z,19.34
2023-05-10T09:43:08.458Z,19.37
2023-05-10T09:44:12.808Z,19.41
2023-05-10T09:45:17.384Z,19.44
2023-05-10T09:46:21.539Z,19.46
2023-05-10T09:47:25.987Z,19.45
2023-05-10T09:48:30.210Z,19.45
2023-05-10T09:49:34.619Z,19.47
2023-05-10T09:50:38.972Z,19.45
2023-05-10T09:51:43.327Z,19.44
2023-05-10T09:52:47.760Z,19.44
2023-05-10T09:53:52.187Z,19.48
2023-05-10T09:54:56.502Z,19.52
2023-05-10T09:56:00.964Z,19.56
2023-05-10T09:57:05.360Z,19.59
2023-05-10T09:58:09.880Z,19.60
2023-05-10T09:59:14.218Z,19.62
2023-05-10T10:01:45.677Z,19.70
2023-05-10T10:02:50.167Z,19.73
2023-05-10T10:03:54.396Z,19.77
2023-05-10T10:04:58.912Z,19.79
2023-05-10T10:06:03.191Z,19.80
2023-05-10T10:07:21.898Z,19.81
2023-05-10T10:08:25.196Z,19.86
2023-05-10T10:09:29.638Z,19.88
2023-05-10T10:10:36.961Z,19.90
2023-05-10T10:11:40.395Z,19.90
2023-05-10T10:12:44.804Z,19.91
2023-05-10T10:13:49.158Z,19.93
2023-05-10T10:14:53.481Z,19.93
2023-05-10T10:15:57.905Z,19.94
2023-05-10T10:18:06.750Z,19.92
2023-05-10T10:19:11.267Z,19.91
2023-05-10T10:20:16.010Z,19.92
2023-05-10T10:21:20.047Z,19.92
2023-05-10T10:22:24.437Z,19.92
2023-05-10T10:23:28.769Z,19.93
2023-05-10T10:24:33.138Z,19.94
2023-05-10T10:25:37.390Z,19.96
2023-05-10T10:26:55.844Z,19.97
2023-05-10T10:27:59.383Z,19.99
2023-05-10T10:29:03.707Z,19.98
2023-05-10T10:30:08.062Z,20.00
2023-05-10T10:31:26.566Z,20.01
2023-05-10T10:32:30.036Z,20.03
2023-05-10T10:33:40.298Z,20.06
2023-05-10T10:34:43.296Z,20.08
2023-05-10T10:35:47.771Z,20.09
2023-05-10T10:36:52.090Z,20.10
2023-05-10T10:37:56.465Z,20.12
2023-05-10T10:39:00.854Z,20.15
2023-05-10T10:40:05.350Z,20.17
2023-05-10T10:41:09.720Z,20.20
2023-05-10T10:42:14.036Z,20.22
2023-05-10T10:43:18.508Z,20.24
2023-05-10T10:44:22.862Z,20.26
2023-05-10T10:45:27.284Z,20.29
2023-05-10T10:46:31.741Z,20.32
2023-05-10T10:47:36.184Z,20.35
2023-05-10T10:48:40.579Z,20.39
2023-05-10T10:49:47.904Z,20.42
2023-05-10T10:50:51.363Z,20.46
2023-05-10T10:51:55.799Z,20.50
2023-05-10T10:53:00.392Z,20.57
2023-05-10T10:54:07.746Z,20.66
2023-05-10T10:55:11.258Z,20.76
2023-05-10T10:56:15.715Z,20.85
2023-05-10T10:57:20.051Z,20.92
2023-05-10T10:58:24.568Z,20.97
2023-05-10T10:59:29.112Z,21.04
2023-05-10T11:02:01.278Z,21.15
2023-05-10T11:03:05.555Z,21.21
2023-05-10T11:04:09.998Z,21.27
2023-05-10T11:05:14.608Z,21.32
2023-05-10T11:06:18.888Z,21.38
2023-05-10T11:07:23.306Z,21.39
2023-05-10T11:08:27.700Z,21.42
2023-05-10T11:09:32.112Z,21.40
2023-05-10T11:10:36.449Z,21.38
2023-05-10T11:11:46.909Z,21.40
2023-05-10T11:13:04.072Z,21.43
2023-05-10T11:14:07.579Z,21.45
2023-05-10T11:15:11.939Z,21.43
2023-05-10T11:16:16.407Z,21.45
2023-05-10T11:17:20.777Z,21.48
2023-05-10T11:18:25.154Z,21.51
2023-05-10T11:19:29.476Z,21.53
2023-05-10T11:20:33.996Z,21.56
2023-05-10T11:21:38.502Z,21.61
2023-05-10T11:22:42.976Z,21.68
2023-05-10T11:23:50.313Z,21.75
2023-05-10T11:24:53.937Z,21.81
2023-05-10T11:25:58.264Z,21.84
2023-05-10T11:27:02.779Z,21.85
2023-05-10T11:28:07.207Z,21.90
2023-05-10T11:29:11.650Z,21.99
2023-05-10T11:30:19.502Z,22.08
2023-05-10T11:31:22.717Z,22.18
2023-05-10T11:32:26.994Z,22.23
2023-05-10T11:33:31.438Z,22.24
2023-05-10T11:34:35.878Z,22.27
2023-05-10T11:35:42.987Z,22.33
2023-05-10T11:36:44.783Z,22.40
2023-05-10T11:37:49.197Z,22.46
2023-05-10T11:38:53.573Z,22.53
2023-05-10T11:40:12.089Z,22.56
2023-05-10T11:41:15.635Z,22.64
2023-05-10T11:42:19.899Z,22.58
2023-05-10T11:43:24.361Z,22.62
2023-05-10T11:44:28.711Z,22.67
2023-05-10T11:45:33.213Z,22.75
2023-05-10T11:46:37.534Z,22.86
2023-05-10T11:47:42.909Z,22.98
2023-05-10T11:48:52.437Z,22.97
2023-05-10T11:49:55.460Z,22.98
2023-05-10T11:51:00.036Z,23.05
2023-05-10T11:52:04.421Z,23.17
2023-05-10T11:53:24.717Z,23.32
2023-05-10T11:54:26.227Z,23.44
2023-05-10T11:55:30.896Z,23.23
2023-05-10T11:56:38.321Z,23.17
2023-05-10T11:57:41.784Z,23.17
2023-05-10T11:58:46.285Z,23.17
2023-05-10T11:59:50.675Z,23.14
2023-05-10T12:00:55.187Z,23.01
2023-05-10T12:02:13.619Z,22.76
2023-05-10T12:03:16.925Z,22.64
2023-05-10T12:04:21.501Z,22.62
2023-05-10T12:05:25.544Z,22.71
2023-05-10T12:06:30.019Z,22.84
2023-05-10T12:07:34.373Z,22.93
2023-05-10T12:08:38.754Z,23.13
2023-05-10T12:09:44.349Z,23.34
2023-05-10T12:10:47.770Z,23.57
2023-05-10T12:11:52.171Z,23.77
2023-05-10T12:12:56.559Z,23.98
2023-05-10T12:14:00.974Z,24.17
2023-05-10T12:15:05.411Z,24.28
2023-05-10T12:16:09.891Z,24.36
2023-05-10T12:17:28.285Z,24.43
2023-05-10T12:18:31.779Z,24.45
2023-05-10T12:19:36.065Z,24.47
2023-05-10T12:22:08.050Z,24.52
2023-05-10T12:23:12.507Z,24.35
2023-05-10T12:24:16.923Z,24.38
2023-05-10T12:25:21.291Z,24.43
2023-05-10T12:26:25.798Z,24.49
2023-05-10T12:27:30.237Z,24.51
2023-05-10T12:28:48.593Z,24.40
2023-05-10T12:29:52.099Z,24.37
2023-05-10T12:30:56.434Z,24.43
2023-05-10T12:32:01.153Z,24.41
2023-05-10T12:33:19.454Z,24.43
2023-05-10T12:34:22.945Z,24.43
2023-05-10T12:35:27.293Z,24.44
2023-05-10T12:36:31.690Z,24.52
2023-05-10T12:37:36.134Z,24.60
2023-05-10T12:38:40.533Z,24.63
2023-05-10T12:39:45.099Z,24.70
2023-05-10T12:40:49.388Z,24.63
2023-05-10T12:41:59.766Z,24.60
2023-05-10T12:43:02.939Z,24.52
2023-05-10T12:44:07.247Z,24.38
2023-05-10T12:45:11.736Z,24.35
2023-05-10T12:46:16.225Z,24.27
2023-05-10T12:47:20.561Z,24.15
2023-05-10T12:48:24.947Z,24.18
2023-05-10T12:49:29.459Z,24.20
2023-05-10T12:50:36.797Z,24.24
2023-05-10T12:51:40.332Z,24.30
2023-05-10T12:52:44.753Z,24.33
2023-05-10T12:53:49.672Z,24.34
2023-05-10T12:54:53.569Z,24.45
2023-05-10T12:55:58.054Z,24.60
2023-05-10T12:57:02.417Z,24.73
2023-05-10T12:58:06.909Z,24.83
2023-05-10T12:59:11.257Z,24.87
2023-05-10T13:00:15.843Z,24.91
2023-05-10T13:01:20.255Z,24.85
2023-05-10T13:02:24.709Z,24.79
2023-05-10T13:03:29.099Z,24.72
2023-05-10T13:06:00.991Z,24.68
2023-05-10T13:07:19.364Z,24.67
2023-05-10T13:08:22.672Z,24.62
2023-05-10T13:09:27.137Z,24.49
2023-05-10T13:10:31.478Z,24.41
2023-05-10T13:11:49.864Z,24.35
2023-05-10T13:12:53.368Z,24.31
2023-05-10T13:13:57.667Z,24.18
2023-05-10T13:15:02.033Z,23.98
2023-05-10T13:16:06.363Z,23.90
2023-05-10T13:17:10.874Z,23.86
2023-05-10T13:18:21.402Z,23.87
2023-05-10T13:19:24.397Z,23.88
2023-05-10T13:20:42.892Z,23.81
2023-05-10T13:21:46.373Z,23.81
2023-05-10T13:22:52.206Z,23.81
2023-05-10T13:23:55.119Z,23.80
2023-05-10T13:25:13.568Z,23.79
2023-05-10T13:26:17.030Z,23.75
2023-05-10T13:27:21.379Z,23.69
2023-05-10T13:28:25.820Z,23.63
2023-05-10T13:29:45.311Z,23.59
2023-05-10T13:30:47.567Z,23.57
2023-05-10T13:33:19.476Z,23.42
2023-05-10T13:34:23.809Z,23.34
2023-05-10T13:35:28.363Z,23.27
2023-05-10T13:36:32.748Z,23.18
2023-05-10T13:37:40.179Z,23.11
2023-05-10T13:38:57.692Z,23.07
2023-05-10T13:40:00.745Z,23.00
2023-05-10T13:41:05.184Z,23.00
2023-05-10T13:42:09.553Z,23.02
2023-05-10T13:43:14.039Z,23.03
2023-05-10T13:44:18.522Z,22.96
2023-05-10T13:45:22.897Z,22.83
2023-05-10T13:46:27.391Z,22.78
2023-05-10T13:47:31.889Z,22.72
2023-05-10T13:48:38.709Z,22.67
2023-05-10T13:49:40.607Z,22.65
2023-05-10T13:50:59.057Z,22.64
2023-05-10T13:52:02.513Z,22.68
2023-05-10T13:53:12.917Z,22.72
2023-05-10T13:54:30.161Z,22.77
2023-05-10T13:55:33.385Z,22.81
2023-05-10T13:56:37.839Z,22.81
2023-05-10T13:57:42.190Z,22.83
2023-05-10T13:59:00.755Z,22.84
2023-05-10T14:00:04.293Z,22.84
2023-05-10T14:01:08.670Z,22.87
2023-05-10T14:02:13.070Z,22.89
2023-05-10T14:03:31.489Z,22.91
2023-05-10T14:04:34.637Z,22.95
2023-05-10T14:05:39.004Z,22.98
2023-05-10T14:06:43.468Z,23.00
2023-05-10T14:08:01.878Z,23.00